Terminal Aerodrome Forecast
Issued by NWS

Home | Current Version | Previous Version | Text Only | Print | Product List | Glossary On
Versions: 1 2 3 4 5 6 7 8 9 10 11 12 13 14 15 16 17 18 19 20 21 22 23 24
000
FTUS43 KDMX 300520
TAFMCW
TAF
KMCW 300520Z 3006/3106 26009KT P6SM SKC
     FM301500 25016G24KT P6SM BKN080
     FM301900 26020G30KT P6SM SCT080
     FM310100 31014KT P6SM SKC=

USA.gov is the U.S. government's official web portal to all federal, state and local government web resources and services.